Camomile — MDQF6 — position and weather

sailwx.info

Track history (hours):
 
Tides and Currents Weather Stations Pressure Air Temp Water Temp Dewpoint Dewpoint Depression Visibility Wind Speed Wind Dir Waves Ship Positions

Camomile

Last reported at 2017-Nov-27 18:52 UTC. Time now 2017-Dec-12 23:55 UTC.
Position N 26°45' W 079°54'.
Warning: this ship's position is 15 days out of date.

Length 12 m.

Type: Sailing vessel. MMSI: 235021717.

Date/timePositionNaut miles runAvg speedWind from/ knotsBaromVisibWave heightAir tempDewpointWater temp
2017-Nov-27 18:52N 26°45' W 079°54'2 4.3
2017-Nov-27 18:30N 26°45' W 079°56'8 1.1
2017-Nov-27 11:22N 26°51' W 080°02'2 6.0
2017-Nov-27 11:00N 26°53' W 080°02'3 5.8
2017-Nov-27 10:30N 26°56' W 080°02'3 5.4
2017-Nov-27 10:00N 26°59' W 080°02'18 5.4
2017-Nov-27 06:37N 27°16' W 080°07'1 5.4
2017-Nov-27 06:29N 27°17' W 080°08'3 5.4
2017-Nov-27 06:00N 27°19' W 080°09'3 5.4
2017-Nov-27 05:30N 27°22' W 080°11'3 5.4
2017-Nov-27 05:00N 27°24' W 080°12'3 5.5
2017-Nov-27 04:30N 27°26' W 080°14'3 5.5
2017-Nov-27 04:00N 27°29' W 080°16'3 5.6
2017-Nov-27 03:30N 27°28' W 080°19'1 0.1
2017-Nov-26 13:48N 27°28' W 080°19'0 0.2
2017-Nov-26 13:30N 27°28' W 080°19'2 3.2
2017-Nov-26 13:00N 27°28' W 080°18'2 3.5
2017-Nov-26 12:30N 27°29' W 080°16'3 5.3
2017-Nov-26 12:00N 27°32' W 080°16'3 5.4
2017-Nov-26 11:30N 27°34' W 080°16'3 5.4
2017-Nov-26 11:00N 27°37' W 080°16'3 5.4
2017-Nov-26 10:30N 27°40' W 080°16'  
2017-Nov-23 01:39N 31°49' W 080°51'4 6.2
2017-Nov-23 01:04N 31°52' W 080°48'1 6.1
2017-Nov-23 00:58N 31°52' W 080°48'3 6.1
2017-Nov-23 00:27N 31°55' W 080°45'3 6.1
2017-Nov-23 00:00N 31°57' W 080°43'4 6.2
2017-Nov-22 23:21N 32°00' W 080°40'  
2017-Nov-19 17:11N 34°43' W 076°53'1 4.9
2017-Nov-19 17:00N 34°43' W 076°52'2 4.7
2017-Nov-19 16:30N 34°43' W 076°49'2 4.1
2017-Nov-19 16:00N 34°43' W 076°47'2 4.0
2017-Nov-19 15:30N 34°43' W 076°44'2 4.0
2017-Nov-19 15:00N 34°43' W 076°42'1 3.0
2017-Nov-19 14:30N 34°43' W 076°40'  
Track history (hours):
 
Tides and Currents Weather Stations Pressure Air Temp Water Temp Dewpoint Dewpoint Depression Visibility Wind Speed Wind Dir Waves Ship Positions

Camomile

Last reported at 2017-Nov-27 18:52 UTC. Time now 2017-Dec-12 23:55 UTC.
Position N 26°45' W 079°54'.
Warning: this ship's position is 15 days out of date.

Length 12 m.

Type: Sailing vessel. MMSI: 235021717.

Date/timePositionNaut miles runAvg speedWind from/ knotsBaromVisibWave heightAir tempDewpointWater temp
2017-Nov-27 18:52N 26°45' W 079°54'2 4.3
2017-Nov-27 18:30N 26°45' W 079°56'8 1.1
2017-Nov-27 11:22N 26°51' W 080°02'2 6.0
2017-Nov-27 11:00N 26°53' W 080°02'3 5.8
2017-Nov-27 10:30N 26°56' W 080°02'3 5.4
2017-Nov-27 10:00N 26°59' W 080°02'18 5.4
2017-Nov-27 06:37N 27°16' W 080°07'1 5.4
2017-Nov-27 06:29N 27°17' W 080°08'3 5.4
2017-Nov-27 06:00N 27°19' W 080°09'3 5.4
2017-Nov-27 05:30N 27°22' W 080°11'3 5.4
2017-Nov-27 05:00N 27°24' W 080°12'3 5.5
2017-Nov-27 04:30N 27°26' W 080°14'3 5.5
2017-Nov-27 04:00N 27°29' W 080°16'3 5.6
2017-Nov-27 03:30N 27°28' W 080°19'1 0.1
2017-Nov-26 13:48N 27°28' W 080°19'0 0.2
2017-Nov-26 13:30N 27°28' W 080°19'2 3.2
2017-Nov-26 13:00N 27°28' W 080°18'2 3.5
2017-Nov-26 12:30N 27°29' W 080°16'3 5.3
2017-Nov-26 12:00N 27°32' W 080°16'3 5.4
2017-Nov-26 11:30N 27°34' W 080°16'3 5.4
2017-Nov-26 11:00N 27°37' W 080°16'3 5.4
2017-Nov-26 10:30N 27°40' W 080°16'  
2017-Nov-23 01:39N 31°49' W 080°51'4 6.2
2017-Nov-23 01:04N 31°52' W 080°48'1 6.1
2017-Nov-23 00:58N 31°52' W 080°48'3 6.1
2017-Nov-23 00:27N 31°55' W 080°45'3 6.1
2017-Nov-23 00:00N 31°57' W 080°43'4 6.2
2017-Nov-22 23:21N 32°00' W 080°40'  
2017-Nov-19 17:11N 34°43' W 076°53'1 4.9
2017-Nov-19 17:00N 34°43' W 076°52'2 4.7
2017-Nov-19 16:30N 34°43' W 076°49'2 4.1
2017-Nov-19 16:00N 34°43' W 076°47'2 4.0
2017-Nov-19 15:30N 34°43' W 076°44'2 4.0
2017-Nov-19 15:00N 34°43' W 076°42'1 3.0
2017-Nov-19 14:30N 34°43' W 076°40'  

Dump ship's entire track history